Ora Direzione Vento Velocita' Vento Media Vento Raffica Max. Temperatura Wind Chill Pioggia Pressione
02:52:05.019 °(NNE)1.9 Kts2.8 Kts4.6 Kts10.8 °C1.9 °C0.0 mm667.6 Hpa
02:29:14.011 °(N)1.5 Kts1.5 Kts4.6 Kts10.0 °C1.5 °C0.0 mm666.7 Hpa
02:10:31.016 °(NNE)4.6 Kts3.2 Kts4.6 Kts11.3 °C4.6 °C0.0 mm668.0 Hpa
01:51:50.015 °(NNE)3.5 Kts3.9 Kts4.3 Kts11.8 °C3.5 °C0.0 mm668.6 Hpa
01:29:57.037 °(NE)0.0 Kts0.0 Kts4.2 Kts10.4 °C0.0 °C0.0 mm667.1 Hpa
01:10:21.096 °(E)1.0 Kts1.1 Kts4.2 Kts9.8 °C1.0 °C0.0 mm666.5 Hpa
00:50:43.010 °(N)0.0 Kts1.0 Kts3.8 Kts10.4 °C0.0 °C0.0 mm667.1 Hpa
00:30:43.09 °(N)1.1 Kts1.1 Kts3.8 Kts10.9 °C1.1 °C0.0 mm667.6 Hpa
00:11:43.09 °(N)3.7 Kts2.9 Kts3.8 Kts11.4 °C3.7 °C0.0 mm668.1 Hpa
23:51:35.0329 °(NNW)3.7 Kts1.6 Kts10.8 Kts10.9 °C3.7 °C0.0 mm667.6 Hpa
23:32:01.0323 °(NW)2.2 Kts1.9 Kts10.8 Kts11.4 °C2.2 °C0.0 mm668.2 Hpa
23:10:29.0315 °(NW)2.4 Kts0.6 Kts10.8 Kts11.0 °C2.4 °C0.0 mm667.7 Hpa
22:50:41.0318 °(NW)0.0 Kts0.0 Kts10.8 Kts10.9 °C0.0 °C0.0 mm667.6 Hpa
22:30:41.0313 °(NW)0.0 Kts0.0 Kts10.8 Kts10.9 °C0.0 °C0.0 mm667.6 Hpa
22:12:05.0314 °(NW)0.0 Kts1.6 Kts10.8 Kts12.1 °C0.0 °C0.0 mm668.8 Hpa
21:50:20.0316 °(NW)1.8 Kts2.4 Kts10.8 Kts12.9 °C1.8 °C0.0 mm669.6 Hpa
21:32:10.0314 °(NW)1.2 Kts2.0 Kts10.8 Kts13.3 °C1.2 °C0.0 mm670.0 Hpa
21:10:19.0316 °(NW)1.7 Kts2.7 Kts10.8 Kts14.4 °C1.7 °C0.0 mm671.1 Hpa
20:49:40.0318 °(NW)3.1 Kts3.0 Kts10.8 Kts15.0 °C3.1 °C0.0 mm671.9 Hpa
20:30:04.0314 °(NW)2.4 Kts3.6 Kts10.8 Kts15.2 °C2.4 °C0.0 mm672.0 Hpa